Time;durP1;ratioP1;P1;durP2;ratioP2;P2;SDS_P1;SDS_P2;PMS_P1;PMS_P2;Temp;Humidity;BMP_temperature;BMP_pressure;BME280_temperature;BME280_humidity;BME280_pressure;Samples;Min_cycle;Max_cycle;Signal;HPM_P1;HPM_P2
2022/12/24 00:00:31;;;;;;;18.13;13.02;;;6.10;99.90;;;;;;4914068;29;20044;-75
2022/12/24 00:02:57;;;;;;;16.10;12.80;;;6.10;99.90;;;;;;4903187;29;20481;-74
2022/12/24 00:05:23;;;;;;;17.83;13.70;;;6.10;99.90;;;;;;4912212;29;20036;-76
2022/12/24 00:07:49;;;;;;;19.13;13.88;;;6.00;99.90;;;;;;4905155;29;20054;-76
2022/12/24 00:10:14;;;;;;;19.58;15.15;;;5.90;99.90;;;;;;4910689;29;20036;-76
2022/12/24 00:12:40;;;;;;;17.83;13.00;;;5.80;99.90;;;;;;4913828;29;20047;-76
2022/12/24 00:15:07;;;;;;;19.40;13.13;;;5.80;99.90;;;;;;4908987;29;20086;-75
2022/12/24 00:17:33;;;;;;;15.55;11.77;;;5.80;99.90;;;;;;4911003;29;20051;-75
2022/12/24 00:19:58;;;;;;;16.27;11.48;;;5.80;99.90;;;;;;4912060;29;20084;-74
2022/12/24 00:22:24;;;;;;;14.93;11.30;;;5.80;99.90;;;;;;4911530;29;20110;-76
2022/12/24 00:24:50;;;;;;;15.38;11.68;;;5.80;99.90;;;;;;4900690;28;22198;-73
2022/12/24 00:27:17;;;;;;;13.32;10.57;;;5.80;99.90;;;;;;4909650;29;20051;-73
2022/12/24 00:29:42;;;;;;;13.57;10.90;;;5.90;99.90;;;;;;4908506;29;20289;-74
2022/12/24 00:32:09;;;;;;;14.25;10.38;;;5.80;99.90;;;;;;4900336;29;20036;-73
2022/12/24 00:34:38;;;;;;;11.80;9.90;;;5.70;99.90;;;;;;4919576;29;20169;-73
2022/12/24 00:37:04;;;;;;;14.32;11.13;;;5.70;99.90;;;;;;4922148;29;20028;-73
2022/12/24 00:39:30;;;;;;;12.30;9.68;;;5.70;99.90;;;;;;4919749;29;20048;-75
2022/12/24 00:41:56;;;;;;;13.30;10.40;;;5.80;99.90;;;;;;4916799;29;20112;-75
2022/12/24 00:44:21;;;;;;;14.35;11.15;;;5.70;99.90;;;;;;4918393;29;20038;-75
2022/12/24 00:46:47;;;;;;;14.73;10.70;;;5.70;99.90;;;;;;4911167;29;20062;-75
2022/12/24 00:49:13;;;;;;;12.82;10.43;;;5.80;99.90;;;;;;4910834;29;20047;-75
2022/12/24 00:51:39;;;;;;;13.13;10.82;;;5.80;99.90;;;;;;4905198;29;20052;-74
2022/12/24 00:54:06;;;;;;;12.98;10.35;;;5.90;99.90;;;;;;4910635;29;20052;-76
2022/12/24 00:56:32;;;;;;;14.85;10.95;;;6.10;99.90;;;;;;4907065;29;20031;-76
2022/12/24 00:58:58;;;;;;;14.02;10.68;;;6.20;99.90;;;;;;4906987;29;20079;-76
2022/12/24 01:01:24;;;;;;;15.55;11.45;;;6.20;99.90;;;;;;4903045;29;20677;-74
2022/12/24 01:03:50;;;;;;;13.65;10.73;;;6.30;99.90;;;;;;4908832;29;20398;-74
2022/12/24 01:06:18;;;;;;;16.60;11.93;;;6.20;99.90;;;;;;4906197;29;20042;-74
2022/12/24 01:08:44;;;;;;;15.68;12.45;;;6.20;99.90;;;;;;4910554;29;20048;-74
2022/12/24 01:11:11;;;;;;;15.80;12.07;;;6.20;99.90;;;;;;4901120;29;21271;-72
2022/12/24 01:13:37;;;;;;;16.73;11.75;;;6.30;99.90;;;;;;4909441;29;20040;-73
2022/12/24 01:16:11;;;;;;;14.60;10.77;;;6.40;99.90;;;;;;4907996;29;20040;-71
2022/12/24 01:18:37;;;;;;;14.20;11.18;;;6.40;99.90;;;;;;4906064;29;20052;-73
2022/12/24 01:21:03;;;;;;;16.05;12.05;;;6.40;99.90;;;;;;4901868;29;20074;-73
2022/12/24 01:23:30;;;;;;;14.80;11.65;;;6.30;99.90;;;;;;4902081;29;20501;-72
2022/12/24 01:25:59;;;;;;;16.67;12.55;;;6.20;99.90;;;;;;4903608;29;20520;-72
2022/12/24 01:28:25;;;;;;;15.10;11.50;;;6.20;99.90;;;;;;4898588;29;20048;-72
2022/12/24 01:30:51;;;;;;;15.05;11.68;;;6.20;99.90;;;;;;4890787;29;20044;-73
2022/12/24 01:33:16;;;;;;;17.33;12.48;;;6.20;99.90;;;;;;4908442;29;20560;-73
2022/12/24 01:35:42;;;;;;;16.88;12.40;;;6.40;99.90;;;;;;4905758;29;20455;-75
2022/12/24 01:38:10;;;;;;;14.48;11.48;;;6.40;99.90;;;;;;4902356;29;20047;-73
2022/12/24 01:43:23;;;;;;;16.05;12.82;;;6.60;99.90;;;;;;4899698;29;20151;-72
2022/12/24 01:45:49;;;;;;;18.20;12.88;;;6.60;99.90;;;;;;4899375;29;20203;-72
2022/12/24 01:48:23;;;;;;;17.83;12.80;;;6.60;99.90;;;;;;4899560;29;20044;-71
2022/12/24 01:51:07;;;;;;;16.73;12.60;;;6.50;99.90;;;;;;4879484;29;20036;-72
2022/12/24 01:53:35;;;;;;;17.33;12.07;;;6.40;99.90;;;;;;4888745;29;20075;-72
2022/12/24 01:56:02;;;;;;;18.08;13.40;;;6.30;99.90;;;;;;4901317;29;20028;-72
2022/12/24 01:58:28;;;;;;;17.00;12.60;;;6.30;99.90;;;;;;4890223;29;20135;-72
2022/12/24 02:00:54;;;;;;;17.90;13.27;;;6.20;99.90;;;;;;4903746;29;20095;-71
2022/12/24 02:03:20;;;;;;;16.85;12.25;;;6.10;99.90;;;;;;4896872;29;20042;-72
2022/12/24 02:05:49;;;;;;;18.40;13.13;;;6.00;99.90;;;;;;4897739;29;20044;-72
2022/12/24 02:08:16;;;;;;;16.80;12.63;;;5.90;99.90;;;;;;4886277;29;20123;-72
2022/12/24 02:10:44;;;;;;;17.20;12.68;;;5.90;99.90;;;;;;4890784;29;20049;-71
2022/12/24 02:13:12;;;;;;;17.95;13.23;;;6.10;99.90;;;;;;4892995;29;20040;-72
2022/12/24 02:15:57;;;;;;;16.35;11.98;;;6.10;99.90;;;;;;4892579;29;20134;-72
2022/12/24 02:18:41;;;;;;;16.45;12.00;;;6.20;99.90;;;;;;4900225;29;20095;-72
2022/12/24 02:21:30;;;;;;;17.38;12.02;;;6.20;99.90;;;;;;4900976;29;20042;-72
2022/12/24 02:24:02;;;;;;;15.57;11.55;;;6.20;99.90;;;;;;4903403;29;20061;-72
2022/12/24 02:26:37;;;;;;;16.58;11.77;;;6.20;99.90;;;;;;4898695;29;20047;-72
2022/12/24 02:29:16;;;;;;;14.65;11.32;;;6.30;99.90;;;;;;4896222;29;20040;-72
2022/12/24 02:31:49;;;;;;;17.70;12.95;;;6.30;99.90;;;;;;4894824;29;20444;-72
2022/12/24 02:34:54;;;;;;;17.50;12.70;;;6.30;99.90;;;;;;4903655;29;20167;-72
2022/12/24 02:37:39;;;;;;;16.55;11.77;;;6.40;99.90;;;;;;4874082;29;20076;-72
2022/12/24 02:40:05;;;;;;;15.10;11.63;;;6.30;99.90;;;;;;4885769;29;20033;-72
2022/12/24 02:42:37;;;;;;;17.48;12.30;;;6.30;99.90;;;;;;4896306;29;20040;-72
2022/12/24 02:45:13;;;;;;;15.50;12.15;;;6.20;99.90;;;;;;4889987;29;20052;-71
2022/12/24 02:47:41;;;;;;;15.30;11.98;;;6.10;99.90;;;;;;4882300;29;20036;-72
2022/12/24 02:50:09;;;;;;;14.63;12.00;;;6.00;99.90;;;;;;4892780;29;23779;-71
2022/12/24 02:52:35;;;;;;;17.42;13.18;;;6.10;99.90;;;;;;4903521;29;20111;-72
2022/12/24 02:55:10;;;;;;;16.65;12.52;;;6.20;99.90;;;;;;4903885;29;20036;-72
2022/12/24 02:58:09;;;;;;;18.40;12.40;;;6.20;99.90;;;;;;4903066;29;20342;-72
2022/12/24 03:00:53;;;;;;;15.73;12.05;;;6.10;99.90;;;;;;4894503;29;20052;-72
2022/12/24 03:03:46;;;;;;;15.95;12.70;;;6.20;99.90;;;;;;4900138;29;20607;-72
2022/12/24 03:06:43;;;;;;;17.40;12.32;;;6.30;99.90;;;;;;4892566;29;21380;-72
2022/12/24 03:09:20;;;;;;;17.08;12.43;;;6.30;99.90;;;;;;4878781;29;20516;-72
2022/12/24 03:12:12;;;;;;;18.00;13.80;;;6.50;99.90;;;;;;4903905;29;20111;-72
2022/12/24 03:14:40;;;;;;;17.00;12.27;;;6.50;99.90;;;;;;4901998;29;20052;-72
2022/12/24 03:17:07;;;;;;;17.13;13.93;;;6.40;99.90;;;;;;4902579;29;20052;-72
2022/12/24 03:19:34;;;;;;;18.67;12.88;;;6.40;99.90;;;;;;4893070;29;20044;-72
2022/12/24 03:22:03;;;;;;;14.90;11.85;;;6.30;99.90;;;;;;4903021;29;21689;-72
2022/12/24 03:24:28;;;;;;;16.30;12.02;;;6.30;99.90;;;;;;4895395;29;20060;-72
2022/12/24 03:26:55;;;;;;;17.77;12.13;;;6.30;99.90;;;;;;4891128;29;20112;-72
2022/12/24 03:29:21;;;;;;;17.42;12.52;;;6.30;99.90;;;;;;4896127;29;20082;-72
2022/12/24 03:31:50;;;;;;;17.92;11.85;;;6.30;99.90;;;;;;4893594;29;20107;-72
2022/12/24 03:34:17;;;;;;;14.15;12.13;;;6.20;99.90;;;;;;4898153;29;20362;-72
2022/12/24 03:36:43;;;;;;;16.25;12.75;;;6.10;99.90;;;;;;4902320;29;20048;-72
2022/12/24 03:39:10;;;;;;;18.17;12.68;;;6.20;99.90;;;;;;4902348;29;20061;-72
2022/12/24 03:41:36;;;;;;;16.55;12.55;;;6.20;99.90;;;;;;4901648;29;20042;-72
2022/12/24 03:44:03;;;;;;;15.65;11.85;;;6.20;99.90;;;;;;4889679;29;20039;-72
2022/12/24 03:46:28;;;;;;;21.23;15.27;;;6.30;99.90;;;;;;4901526;29;20457;-72
2022/12/24 03:48:54;;;;;;;22.23;14.27;;;6.30;99.90;;;;;;4892710;29;20063;-72
2022/12/24 03:51:21;;;;;;;21.05;14.05;;;6.30;99.90;;;;;;4904352;29;20038;-71
2022/12/24 03:53:47;;;;;;;18.08;12.73;;;6.30;99.90;;;;;;4896718;29;20054;-72
2022/12/24 03:56:13;;;;;;;42.35;25.02;;;6.40;99.90;;;;;;4907842;29;20508;-72
2022/12/24 03:58:39;;;;;;;30.10;19.75;;;6.50;99.90;;;;;;4895417;29;20047;-72
2022/12/24 04:01:04;;;;;;;30.73;18.95;;;6.50;99.90;;;;;;4903684;29;20039;-72
2022/12/24 04:03:30;;;;;;;22.73;16.45;;;6.60;99.90;;;;;;4897448;29;20742;-72
2022/12/24 04:06:01;;;;;;;16.92;12.63;;;6.50;99.90;;;;;;4910927;29;20052;-72
2022/12/24 04:08:27;;;;;;;19.60;13.02;;;6.50;99.90;;;;;;4909441;29;20135;-72
2022/12/24 04:10:53;;;;;;;18.90;12.60;;;6.40;99.90;;;;;;4900941;29;20040;-72
2022/12/24 04:13:18;;;;;;;16.77;13.00;;;6.40;99.90;;;;;;4908115;29;20051;-72
2022/12/24 04:15:44;;;;;;;15.82;12.10;;;6.40;99.90;;;;;;4901218;29;20039;-72
2022/12/24 04:18:09;;;;;;;13.15;10.77;;;6.40;99.90;;;;;;4903942;29;20052;-71
2022/12/24 04:20:35;;;;;;;17.08;11.75;;;6.60;99.90;;;;;;4892843;29;20055;-72
2022/12/24 04:23:01;;;;;;;14.90;10.88;;;6.80;99.90;;;;;;4905210;29;20811;-72
2022/12/24 04:25:26;;;;;;;12.02;9.40;;;6.90;99.90;;;;;;4903700;29;20044;-72
2022/12/24 04:27:52;;;;;;;14.10;9.50;;;7.20;99.90;;;;;;4901510;29;20139;-72
2022/12/24 04:30:18;;;;;;;15.32;10.10;;;7.40;99.90;;;;;;4897013;29;20522;-76
2022/12/24 04:32:43;;;;;;;12.00;10.05;;;7.50;99.90;;;;;;4901853;29;20140;-77
2022/12/24 04:35:09;;;;;;;12.35;9.60;;;7.60;99.90;;;;;;4901094;29;20286;-77
2022/12/24 04:37:35;;;;;;;12.05;9.63;;;7.70;99.90;;;;;;4907344;29;20504;-77
2022/12/24 04:40:00;;;;;;;11.63;9.52;;;7.70;99.90;;;;;;4908754;29;21667;-76
2022/12/24 04:42:26;;;;;;;13.10;10.88;;;7.80;99.90;;;;;;4907592;29;20067;-77
2022/12/24 04:44:52;;;;;;;14.73;10.52;;;7.90;99.90;;;;;;4898683;29;20039;-76
2022/12/24 04:47:17;;;;;;;13.32;10.85;;;7.90;99.90;;;;;;4899185;29;20047;-76
2022/12/24 04:49:43;;;;;;;15.50;11.40;;;8.00;99.90;;;;;;4897181;29;20059;-76
2022/12/24 04:52:08;;;;;;;14.15;11.07;;;8.10;99.90;;;;;;4908356;29;20086;-76
2022/12/24 04:54:34;;;;;;;14.40;11.70;;;8.10;99.90;;;;;;4906385;29;20127;-76
2022/12/24 04:57:00;;;;;;;13.10;10.00;;;8.10;99.90;;;;;;4906545;29;21372;-76
2022/12/24 04:59:25;;;;;;;16.90;12.20;;;8.30;99.90;;;;;;4897343;29;20052;-76
2022/12/24 05:01:51;;;;;;;18.85;12.40;;;8.30;99.90;;;;;;4897922;29;20036;-76
2022/12/24 05:04:16;;;;;;;12.15;10.00;;;8.40;99.90;;;;;;4900084;29;20048;-76
2022/12/24 05:06:42;;;;;;;10.93;8.93;;;8.40;99.90;;;;;;4893357;29;20043;-76
2022/12/24 05:09:08;;;;;;;11.43;8.65;;;8.40;99.90;;;;;;4892467;29;21097;-77
2022/12/24 05:11:33;;;;;;;11.13;8.25;;;8.40;99.90;;;;;;4892453;29;20047;-76
2022/12/24 05:13:59;;;;;;;10.93;8.30;;;8.50;99.90;;;;;;4904879;29;20087;-76
2022/12/24 05:16:24;;;;;;;7.93;6.82;;;8.50;99.90;;;;;;4900965;29;20588;-76
2022/12/24 05:18:51;;;;;;;8.77;7.05;;;8.50;99.90;;;;;;4897055;29;20549;-75
2022/12/24 05:21:20;;;;;;;7.82;7.03;;;8.60;99.90;;;;;;4900201;29;20039;-76
2022/12/24 05:26:35;;;;;;;7.30;5.57;;;8.60;99.90;;;;;;4886486;29;20135;-77
2022/12/24 05:29:02;;;;;;;8.52;6.20;;;8.60;99.90;;;;;;4900972;29;20071;-76
2022/12/24 05:31:30;;;;;;;8.35;6.47;;;8.60;99.90;;;;;;4906268;29;20048;-76
2022/12/24 05:33:56;;;;;;;10.32;8.40;;;8.60;99.90;;;;;;4906558;29;20031;-76
2022/12/24 05:36:22;;;;;;;12.95;8.70;;;8.60;99.90;;;;;;4892544;29;20079;-76
2022/12/24 05:38:49;;;;;;;8.15;6.10;;;8.70;99.90;;;;;;4893734;29;20091;-76
2022/12/24 05:41:15;;;;;;;6.47;5.63;;;8.80;99.90;;;;;;4911725;29;20027;-75
2022/12/24 05:43:40;;;;;;;7.18;6.00;;;8.80;99.90;;;;;;4903405;29;20043;-77
2022/12/24 05:46:12;;;;;;;6.85;5.57;;;8.90;99.90;;;;;;4899249;29;20413;-76
2022/12/24 05:48:38;;;;;;;5.93;5.32;;;8.90;99.90;;;;;;4902944;29;20040;-75
2022/12/24 05:51:07;;;;;;;9.60;6.55;;;8.90;99.90;;;;;;4901300;29;20091;-76
2022/12/24 05:53:33;;;;;;;10.43;7.60;;;9.00;99.90;;;;;;4902595;29;20040;-76
2022/12/24 05:56:08;;;;;;;9.40;6.63;;;8.90;99.90;;;;;;4893571;29;20118;-76
2022/12/24 05:58:34;;;;;;;13.13;7.80;;;8.90;99.90;;;;;;4902525;29;20134;-76
2022/12/24 06:01:02;;;;;;;13.05;8.13;;;8.90;99.90;;;;;;4906513;29;20227;-76
2022/12/24 06:03:29;;;;;;;15.65;10.18;;;9.00;99.90;;;;;;4892118;29;20036;-75
2022/12/24 06:06:00;;;;;;;13.85;10.25;;;9.00;99.90;;;;;;4895078;29;20047;-75
2022/12/24 06:08:26;;;;;;;1.98;1.40;;;9.00;99.90;;;;;;4906505;29;20051;-73
2022/12/24 06:11:00;;;;;;;1.77;1.00;;;9.40;99.90;;;;;;4899826;29;20032;-74
2022/12/24 06:13:26;;;;;;;4.70;1.17;;;9.90;99.90;;;;;;4901954;29;20032;-74
2022/12/24 06:16:00;;;;;;;3.22;1.02;;;10.30;99.90;;;;;;4902636;29;20048;-75
2022/12/24 06:18:28;;;;;;;2.05;1.02;;;10.50;99.90;;;;;;4893071;29;20134;-75
2022/12/24 06:20:55;;;;;;;1.70;0.90;;;10.70;99.90;;;;;;4894907;29;20031;-74
2022/12/24 06:23:22;;;;;;;1.48;1.13;;;10.90;99.90;;;;;;4889788;29;20036;-75
2022/12/24 06:25:48;;;;;;;1.40;0.80;;;10.90;99.90;;;;;;4902679;29;20555;-73
2022/12/24 06:28:14;;;;;;;3.35;1.45;;;11.00;99.90;;;;;;4906355;29;20050;-75
2022/12/24 06:30:40;;;;;;;1.38;0.80;;;11.10;99.90;;;;;;4901914;29;20044;-73
2022/12/24 06:33:06;;;;;;;1.63;0.85;;;11.10;99.90;;;;;;4893468;29;20036;-74
2022/12/24 06:35:32;;;;;;;2.55;0.70;;;11.20;99.90;;;;;;4894093;29;20040;-75
2022/12/24 06:37:58;;;;;;;1.27;0.80;;;11.20;99.90;;;;;;4908024;29;20062;-74
2022/12/24 06:40:27;;;;;;;1.70;0.80;;;11.30;99.90;;;;;;4904396;29;20599;-74
2022/12/24 06:42:53;;;;;;;0.82;0.60;;;11.20;99.90;;;;;;4893966;29;20079;-73
2022/12/24 06:45:19;;;;;;;0.93;0.82;;;11.30;99.90;;;;;;4889450;29;20126;-76
2022/12/24 06:47:44;;;;;;;1.35;0.90;;;11.30;99.90;;;;;;4901349;29;20873;-74
2022/12/24 06:50:10;;;;;;;1.92;0.77;;;11.40;99.90;;;;;;4892075;29;20075;-72
2022/12/24 06:52:36;;;;;;;1.42;0.40;;;11.40;99.90;;;;;;4904796;29;20051;-72
2022/12/24 06:55:03;;;;;;;0.70;0.40;;;11.30;99.90;;;;;;4895344;29;20123;-72
2022/12/24 06:57:30;;;;;;;2.38;0.85;;;11.30;99.90;;;;;;4893188;29;20049;-70
2022/12/24 06:59:56;;;;;;;0.90;0.77;;;11.30;99.90;;;;;;4889046;29;20054;-73
2022/12/24 07:02:23;;;;;;;1.75;0.90;;;11.40;99.90;;;;;;4904178;29;20040;-73
2022/12/24 07:04:48;;;;;;;0.73;0.70;;;11.40;99.90;;;;;;4900729;29;20075;-74
2022/12/24 07:07:14;;;;;;;1.38;0.65;;;11.50;99.90;;;;;;4902577;29;20139;-76
2022/12/24 07:09:40;;;;;;;1.50;0.70;;;11.50;99.90;;;;;;4906123;29;20092;-73
2022/12/24 07:12:06;;;;;;;1.65;0.82;;;11.40;99.90;;;;;;4903858;29;20051;-74
2022/12/24 07:14:32;;;;;;;1.05;0.90;;;11.50;99.90;;;;;;4903521;29;20126;-75
2022/12/24 07:16:58;;;;;;;1.00;0.70;;;11.50;99.90;;;;;;4894124;29;20067;-73
2022/12/24 07:19:23;;;;;;;1.05;0.82;;;11.40;99.90;;;;;;4905617;29;20130;-76
2022/12/24 07:21:49;;;;;;;1.33;0.75;;;11.40;99.90;;;;;;4896530;29;20170;-75
2022/12/24 07:24:15;;;;;;;1.23;0.73;;;11.40;99.90;;;;;;4898402;29;20053;-76
2022/12/24 07:26:41;;;;;;;0.80;0.75;;;11.40;99.90;;;;;;4898834;29;20044;-75
2022/12/24 07:29:07;;;;;;;1.67;0.75;;;11.40;99.90;;;;;;4897878;29;20051;-74
2022/12/24 07:31:33;;;;;;;1.40;0.88;;;11.40;99.90;;;;;;4900055;29;20047;-75
2022/12/24 07:33:58;;;;;;;4.47;0.70;;;11.40;99.90;;;;;;4909502;29;20144;-69
2022/12/24 07:36:24;;;;;;;0.98;0.73;;;11.40;99.90;;;;;;4900930;29;20496;-75
2022/12/24 07:38:51;;;;;;;1.75;1.20;;;11.40;99.90;;;;;;4907934;29;20999;-74
2022/12/24 07:41:17;;;;;;;0.95;0.70;;;11.50;99.90;;;;;;4899088;29;20103;-74
2022/12/24 07:43:43;;;;;;;10.10;6.20;;;11.50;99.90;;;;;;4903105;29;20035;-75
2022/12/24 07:46:09;;;;;;;1.38;1.08;;;11.40;99.90;;;;;;4902997;29;21674;-75
2022/12/24 07:48:34;;;;;;;8.07;4.43;;;11.40;99.90;;;;;;4902484;29;20495;-76
2022/12/24 07:51:00;;;;;;;2.05;1.08;;;11.30;99.90;;;;;;4914695;29;20047;-75
2022/12/24 07:53:27;;;;;;;5.90;3.72;;;11.30;99.90;;;;;;4909532;29;20048;-75
2022/12/24 07:55:52;;;;;;;2.30;1.17;;;11.40;99.90;;;;;;4912987;29;20032;-75
2022/12/24 07:58:19;;;;;;;2.90;1.27;;;11.40;99.90;;;;;;4913758;29;20224;-74
2022/12/24 08:00:45;;;;;;;5.72;3.63;;;11.40;99.90;;;;;;4911156;29;20040;-73
2022/12/24 08:03:18;;;;;;;3.88;1.25;;;11.40;99.90;;;;;;4905710;29;20179;-73
2022/12/24 08:05:44;;;;;;;4.20;2.13;;;11.30;99.90;;;;;;4910077;29;20560;-76
2022/12/24 08:08:10;;;;;;;2.65;1.38;;;11.40;99.90;;;;;;4914173;29;20048;-78
2022/12/24 08:10:38;;;;;;;2.53;1.05;;;11.40;99.90;;;;;;4911369;29;20543;-77
2022/12/24 08:13:04;;;;;;;1.58;0.90;;;11.50;99.90;;;;;;4911294;29;20040;-73
2022/12/24 08:15:30;;;;;;;2.50;0.93;;;11.50;99.90;;;;;;4906664;29;20411;-73
2022/12/24 08:17:55;;;;;;;1.75;0.65;;;11.40;99.90;;;;;;4912880;29;20102;-74
2022/12/24 08:20:21;;;;;;;1.10;0.65;;;11.40;99.90;;;;;;4907122;29;20044;-76
2022/12/24 08:22:47;;;;;;;2.95;0.60;;;11.40;99.90;;;;;;4900430;29;20067;-76
2022/12/24 08:25:12;;;;;;;2.63;0.85;;;11.40;99.90;;;;;;4911215;29;20039;-75
2022/12/24 08:27:38;;;;;;;2.10;0.88;;;11.40;99.90;;;;;;4903575;29;23239;-75
2022/12/24 08:30:04;;;;;;;1.75;0.80;;;11.40;99.90;;;;;;4905575;29;20058;-74
2022/12/24 08:32:30;;;;;;;3.60;0.80;;;11.40;99.90;;;;;;4909549;29;20055;-76
2022/12/24 08:34:56;;;;;;;2.10;0.80;;;11.60;99.90;;;;;;4908162;29;20074;-74
2022/12/24 08:37:21;;;;;;;1.23;0.65;;;11.60;99.90;;;;;;4904489;29;20042;-71
2022/12/24 08:39:47;;;;;;;1.83;0.77;;;11.70;99.90;;;;;;4905916;29;20050;-71
2022/12/24 08:42:13;;;;;;;1.38;0.70;;;11.80;99.90;;;;;;4908535;29;20083;-71
2022/12/24 08:44:38;;;;;;;5.70;0.68;;;11.80;99.90;;;;;;4906043;29;20051;-71
2022/12/24 08:47:04;;;;;;;2.35;0.98;;;11.80;99.90;;;;;;4891515;29;20063;-71
2022/12/24 08:49:30;;;;;;;2.38;1.00;;;11.90;99.90;;;;;;4889181;29;21651;-72
2022/12/24 08:51:56;;;;;;;2.47;0.80;;;11.90;99.90;;;;;;4885856;29;20037;-71
2022/12/24 08:54:24;;;;;;;2.53;1.13;;;11.90;99.90;;;;;;4891659;29;20670;-71
2022/12/24 08:56:49;;;;;;;1.23;0.65;;;11.90;99.90;;;;;;4889236;29;20036;-75
2022/12/24 08:59:15;;;;;;;1.52;0.80;;;11.90;99.90;;;;;;4891819;29;20078;-76
2022/12/24 09:01:41;;;;;;;1.85;0.63;;;11.90;99.90;;;;;;4888658;29;20048;-75
2022/12/24 09:04:08;;;;;;;2.42;0.90;;;11.90;99.90;;;;;;4891786;29;20354;-75
2022/12/24 09:06:34;;;;;;;1.48;0.63;;;11.90;99.90;;;;;;4893500;29;20501;-75
2022/12/24 09:09:01;;;;;;;2.40;1.13;;;11.90;99.90;;;;;;4898603;29;20055;-75
2022/12/24 09:11:27;;;;;;;1.75;0.70;;;11.80;99.90;;;;;;4897728;29;20057;-76
2022/12/24 09:13:54;;;;;;;2.13;0.80;;;11.80;99.90;;;;;;4904452;29;20028;-71
2022/12/24 09:16:19;;;;;;;2.72;0.63;;;11.70;99.90;;;;;;4898538;29;20044;-71
2022/12/24 09:18:45;;;;;;;0.93;0.40;;;11.70;99.90;;;;;;4889557;29;20047;-72
2022/12/24 09:21:13;;;;;;;1.73;0.80;;;11.70;99.90;;;;;;4889850;29;20502;-72
2022/12/24 09:23:40;;;;;;;2.85;0.77;;;11.70;99.90;;;;;;4891012;29;20044;-72
2022/12/24 09:26:16;;;;;;;3.15;0.63;;;11.70;99.90;;;;;;4891870;29;20533;-70
2022/12/24 09:28:42;;;;;;;2.72;0.88;;;11.70;99.90;;;;;;4900307;29;20040;-71
2022/12/24 09:31:10;;;;;;;1.35;0.43;;;11.80;99.90;;;;;;4883573;29;20051;-71
2022/12/24 09:33:37;;;;;;;1.95;0.75;;;11.90;99.90;;;;;;4891597;29;20028;-72
2022/12/24 09:36:03;;;;;;;1.60;0.60;;;12.00;99.90;;;;;;4890775;29;20052;-71
2022/12/24 09:38:29;;;;;;;2.28;0.55;;;12.00;99.90;;;;;;4875230;29;20067;-72
2022/12/24 09:40:56;;;;;;;3.38;0.60;;;12.10;99.90;;;;;;4897029;29;20032;-72
2022/12/24 09:43:30;;;;;;;0.93;0.50;;;12.10;99.90;;;;;;4892212;29;20043;-71
2022/12/24 09:46:12;;;;;;;3.42;0.63;;;12.20;99.90;;;;;;4901162;29;20047;-73
2022/12/24 09:48:47;;;;;;;2.95;0.70;;;12.10;99.90;;;;;;4910611;29;20039;-72
2022/12/24 09:51:20;;;;;;;2.10;0.40;;;12.10;99.90;;;;;;4908079;29;20661;-71
2022/12/24 09:54:00;;;;;;;2.95;0.77;;;12.10;99.90;;;;;;4895181;29;20135;-70
2022/12/24 09:56:46;;;;;;;1.67;0.68;;;12.10;99.90;;;;;;4917715;29;20948;-70
2022/12/24 09:59:20;;;;;;;1.38;0.60;;;12.10;99.90;;;;;;4910507;29;20056;-71
2022/12/24 10:01:48;;;;;;;2.13;0.60;;;12.10;99.90;;;;;;4899776;29;20063;-71
2022/12/24 10:04:17;;;;;;;2.75;0.50;;;12.00;99.90;;;;;;4909840;29;20142;-71
2022/12/24 10:07:20;;;;;;;1.85;0.50;;;11.90;99.90;;;;;;4904901;29;20485;-71
2022/12/24 10:10:08;;;;;;;2.45;0.63;;;12.00;99.90;;;;;;4906503;29;20500;-70
2022/12/24 10:12:58;;;;;;;1.55;0.50;;;11.90;99.90;;;;;;4907857;29;20043;-71
2022/12/24 10:15:34;;;;;;;2.35;0.90;;;12.00;99.90;;;;;;4906474;29;20781;-73
2022/12/24 10:18:05;;;;;;;1.25;0.45;;;12.00;99.90;;;;;;4907342;29;20416;-73
2022/12/24 10:21:14;;;;;;;1.80;0.90;;;11.90;99.90;;;;;;4899184;29;20039;-72
2022/12/24 10:24:11;;;;;;;3.65;1.20;;;12.00;99.90;;;;;;4902257;29;20062;-71
2022/12/24 10:26:43;;;;;;;0.77;0.68;;;11.90;99.90;;;;;;4905100;29;20520;-74
2022/12/24 10:29:17;;;;;;;1.58;0.65;;;11.90;99.90;;;;;;4900876;29;20067;-73
2022/12/24 10:31:58;;;;;;;2.78;0.88;;;11.90;99.90;;;;;;4907356;29;20038;-75
2022/12/24 10:34:28;;;;;;;1.65;0.57;;;11.90;99.90;;;;;;4903206;29;20154;-75
2022/12/24 10:36:55;;;;;;;1.88;0.65;;;11.90;99.90;;;;;;4885764;29;20043;-74
2022/12/24 10:39:23;;;;;;;1.70;0.77;;;11.90;99.90;;;;;;4898531;29;20047;-73
2022/12/24 10:41:51;;;;;;;1.48;0.80;;;11.90;99.90;;;;;;4911503;29;20517;-73
2022/12/24 10:44:20;;;;;;;4.55;0.70;;;11.90;99.90;;;;;;4905798;29;20142;-73
2022/12/24 10:46:46;;;;;;;2.90;0.90;;;11.90;99.90;;;;;;4892846;29;20599;-72
2022/12/24 10:49:19;;;;;;;2.33;0.80;;;11.90;99.90;;;;;;4903420;29;20397;-71
2022/12/24 10:51:47;;;;;;;0.95;0.60;;;11.90;99.90;;;;;;4914452;29;21321;-72
2022/12/24 10:54:21;;;;;;;2.80;0.98;;;11.80;99.90;;;;;;4905261;29;20082;-71
2022/12/24 10:56:51;;;;;;;2.30;0.80;;;11.80;99.90;;;;;;4913133;29;20127;-74
2022/12/24 10:59:25;;;;;;;2.38;0.77;;;11.80;99.90;;;;;;4916263;29;20119;-70
2022/12/24 11:01:52;;;;;;;2.13;0.73;;;11.80;99.90;;;;;;4906964;29;20079;-72
2022/12/24 11:04:24;;;;;;;2.92;1.00;;;11.80;99.90;;;;;;4911132;29;20039;-73
2022/12/24 11:06:57;;;;;;;1.10;0.55;;;11.70;99.90;;;;;;4901876;29;20098;-72
2022/12/24 11:09:29;;;;;;;3.22;1.00;;;11.70;99.90;;;;;;4914802;29;20047;-70
2022/12/24 11:12:00;;;;;;;5.10;0.60;;;11.70;99.90;;;;;;4909541;29;20074;-70
2022/12/24 11:14:32;;;;;;;1.75;0.68;;;11.70;99.90;;;;;;4913405;29;20062;-70
2022/12/24 11:16:57;;;;;;;1.55;0.73;;;11.70;99.90;;;;;;4913245;29;20035;-70
2022/12/24 11:19:29;;;;;;;1.67;0.80;;;11.70;99.90;;;;;;4913187;29;20051;-70
2022/12/24 11:22:00;;;;;;;3.28;0.68;;;11.70;99.90;;;;;;4914311;29;20063;-71
2022/12/24 11:24:29;;;;;;;2.67;0.75;;;11.70;99.90;;;;;;4910862;29;20047;-66
2022/12/24 11:27:30;;;;;;;3.35;0.85;;;11.70;99.90;;;;;;4911554;29;20036;-71
2022/12/24 11:30:22;;;;;;;0.88;0.57;;;11.70;99.90;;;;;;4906810;29;20042;-70
2022/12/24 11:32:49;;;;;;;;;;;11.80;99.90;;;;;;4912557;29;20040;-70
2022/12/24 11:35:21;;;;;;;2.05;0.57;;;11.90;99.90;;;;;;4915900;29;19918;-70
2022/12/24 11:37:59;;;;;;;4.45;0.90;;;11.90;99.90;;;;;;4913532;29;20062;-70
2022/12/24 11:40:32;;;;;;;1.75;0.60;;;12.00;99.90;;;;;;4914984;29;20757;-71
2022/12/24 11:43:00;;;;;;;2.55;0.75;;;12.00;99.90;;;;;;4908627;29;20030;-72
2022/12/24 11:45:28;;;;;;;1.42;0.50;;;12.10;99.90;;;;;;4897164;29;20049;-70
2022/12/24 11:47:55;;;;;;;2.95;1.17;;;12.20;99.90;;;;;;4893282;29;20143;-71
2022/12/24 11:50:27;;;;;;;1.70;0.90;;;12.20;99.90;;;;;;4886763;29;20166;-70
2022/12/24 11:53:12;;;;;;;2.13;0.85;;;12.20;99.90;;;;;;4882140;29;20063;-71
2022/12/24 11:55:46;;;;;;;2.83;0.68;;;12.20;99.90;;;;;;4887733;29;20122;-71
2022/12/24 11:58:45;;;;;;;1.58;0.70;;;12.10;99.90;;;;;;4885854;29;20036;-70
2022/12/24 12:01:33;;;;;;;4.90;1.05;;;12.10;99.90;;;;;;4890834;29;20067;-70
2022/12/24 12:04:03;;;;;;;3.70;0.60;;;12.10;99.90;;;;;;4900175;29;20047;-69
2022/12/24 12:06:38;;;;;;;2.72;0.75;;;12.10;99.90;;;;;;4891630;29;20063;-70
2022/12/24 12:09:13;;;;;;;3.03;1.20;;;12.10;99.90;;;;;;4878981;29;20037;-70
2022/12/24 12:11:42;;;;;;;2.45;0.80;;;12.10;99.90;;;;;;4887532;29;20037;-69
2022/12/24 12:14:17;;;;;;;3.20;0.60;;;12.00;99.90;;;;;;4888750;29;20115;-70
2022/12/24 12:17:08;;;;;;;2.72;0.80;;;11.90;99.90;;;;;;4881748;29;20043;-71
2022/12/24 12:19:46;;;;;;;3.03;0.93;;;11.90;99.90;;;;;;4871900;29;20063;-71
2022/12/24 12:22:22;;;;;;;2.15;0.80;;;11.90;99.90;;;;;;4888875;29;20397;-71
2022/12/24 12:24:51;;;;;;;3.28;0.77;;;12.00;99.90;;;;;;4887678;29;20047;-71
2022/12/24 12:27:26;;;;;;;3.47;1.08;;;12.10;99.90;;;;;;4891306;29;20151;-70
2022/12/24 12:29:59;;;;;;;3.63;1.50;;;12.00;99.90;;;;;;4892600;29;20143;-70
2022/12/24 12:32:49;;;;;;;2.90;1.10;;;12.00;99.90;;;;;;4890514;29;20117;-71
2022/12/24 12:35:14;;;;;;;3.67;1.38;;;12.00;99.90;;;;;;4890089;29;20048;-69
2022/12/24 12:37:47;;;;;;;4.10;0.98;;;12.00;99.90;;;;;;4880574;29;20462;-70
2022/12/24 12:40:17;;;;;;;4.53;1.08;;;12.00;99.90;;;;;;4888462;29;20089;-70
2022/12/24 12:43:15;;;;;;;1.67;0.98;;;12.10;99.90;;;;;;4885447;29;20058;-71
2022/12/24 12:45:57;;;;;;;5.22;1.55;;;12.10;99.90;;;;;;4871377;29;20060;-70
2022/12/24 12:48:25;;;;;;;4.40;1.17;;;12.00;99.90;;;;;;4904056;29;20051;-71
2022/12/24 12:51:02;;;;;;;3.25;0.98;;;11.80;99.90;;;;;;4906142;29;20123;-71
2022/12/24 12:53:38;;;;;;;3.60;0.73;;;11.90;99.90;;;;;;4904301;29;20856;-71
2022/12/24 12:56:22;;;;;;;2.80;0.68;;;11.80;99.90;;;;;;4906432;29;20178;-71
2022/12/24 12:58:53;;;;;;;5.97;1.08;;;11.80;99.90;;;;;;4887969;29;20079;-71
2022/12/24 13:01:29;;;;;;;5.13;1.30;;;11.80;99.90;;;;;;4903756;29;20058;-71